Time;durP1;ratioP1;P1;durP2;ratioP2;P2;SDS_P1;SDS_P2;PMS_P1;PMS_P2;Temp;Humidity;BMP_temperature;BMP_pressure;BME280_temperature;BME280_humidity;BME280_pressure;Samples;Min_cycle;Max_cycle;Signal;HPM_P1;HPM_P2
2023/10/30 00:04:18;;;;;;;7.60;3.10;;;;;;;10.89;100.00;98418.53;429864;1274;139344;-65
2023/10/30 00:14:24;;;;;;;7.10;3.40;;;;;;;10.68;100.00;98419.74;430026;1271;139939;-66
2023/10/30 00:24:32;;;;;;;7.40;4.50;;;;;;;10.50;100.00;98408.97;430170;1271;140705;-66
2023/10/30 00:34:37;;;;;;;;;;;;;;;10.36;100.00;98397.33;430385;1276;139514;-65
2023/10/30 00:44:43;;;;;;;7.90;3.50;;;;;;;10.25;100.00;98392.26;430996;1270;126134;-66
2023/10/30 00:54:49;;;;;;;6.30;3.20;;;;;;;10.14;100.00;98420.08;429975;1276;140111;-66
2023/10/30 01:04:54;;;;;;;5.50;3.20;;;;;;;9.99;100.00;98424.74;429714;1270;139740;-66
2023/10/30 01:15:01;;;;;;;4.40;3.30;;;;;;;9.77;100.00;98422.84;429819;1274;139656;-65
2023/10/30 01:25:08;;;;;;;7.00;3.20;;;;;;;9.54;100.00;98438.64;429799;1276;140315;-66
2023/10/30 01:35:15;;;;;;;7.30;3.90;;;;;;;9.32;100.00;98444.67;430051;1276;139276;-66
2023/10/30 01:45:21;;;;;;;4.80;4.10;;;;;;;9.05;100.00;98424.32;429900;1275;139335;-66
2023/10/30 01:55:27;;;;;;;7.90;4.50;;;;;;;8.86;100.00;98424.02;429656;1275;140354;-65
2023/10/30 02:05:33;;;;;;;4.90;3.70;;;;;;;8.74;100.00;98429.46;429786;1273;139347;-65
2023/10/30 02:15:39;;;;;;;12.20;5.00;;;;;;;8.60;100.00;98432.97;429549;1275;140138;-66
2023/10/30 02:25:45;;;;;;;5.80;4.10;;;;;;;8.57;100.00;98420.63;430714;1273;139780;-65
2023/10/30 02:35:51;;;;;;;7.10;5.00;;;;;;;8.54;100.00;98414.56;429695;1274;139488;-65
2023/10/30 02:45:57;;;;;;;5.70;4.20;;;;;;;8.57;100.00;98400.72;429657;1275;140704;-65
2023/10/30 02:56:03;;;;;;;5.30;4.50;;;;;;;8.57;100.00;98393.92;429696;1276;139583;-64
2023/10/30 03:06:09;;;;;;;4.40;4.00;;;;;;;8.51;100.00;98398.20;429666;1275;140335;-66
2023/10/30 03:16:15;;;;;;;6.20;4.30;;;;;;;8.48;100.00;98387.60;430292;1276;139638;-66
2023/10/30 03:26:21;;;;;;;7.20;4.70;;;;;;;8.50;100.00;98410.96;430310;1276;139958;-65
2023/10/30 03:36:28;;;;;;;11.30;4.40;;;;;;;8.49;100.00;98422.55;430056;1271;139867;-65
2023/10/30 03:46:34;;;;;;;6.60;4.50;;;;;;;8.51;100.00;98417.35;430165;1270;140067;-67
2023/10/30 03:56:40;;;;;;;9.80;5.10;;;;;;;8.49;100.00;98421.00;429970;1276;139577;-66
2023/10/30 04:06:46;;;;;;;9.90;5.00;;;;;;;8.44;100.00;98425.34;430038;1274;139356;-65
2023/10/30 04:16:52;;;;;;;7.70;4.40;;;;;;;8.45;100.00;98433.67;430034;1276;140237;-66
2023/10/30 04:26:58;;;;;;;5.40;3.60;;;;;;;8.50;100.00;98426.33;430421;1275;140357;-66
2023/10/30 04:37:05;;;;;;;8.50;3.70;;;;;;;8.65;100.00;98449.48;430614;1275;139158;-65
2023/10/30 04:47:11;;;;;;;4.70;3.00;;;;;;;8.87;100.00;98438.82;430943;1274;139797;-66
2023/10/30 04:57:17;;;;;;;2.90;2.70;;;;;;;8.95;100.00;98436.96;431473;1270;139472;-66
2023/10/30 05:07:23;;;;;;;4.40;2.40;;;;;;;8.94;100.00;98454.86;430668;1276;139495;-65
2023/10/30 05:17:29;;;;;;;5.00;2.60;;;;;;;8.94;100.00;98463.39;429957;1276;139503;-65
2023/10/30 05:27:35;;;;;;;5.60;3.30;;;;;;;8.92;100.00;98469.45;431740;1270;139839;-65
2023/10/30 05:37:41;;;;;;;5.50;3.00;;;;;;;8.92;100.00;98477.46;429977;1270;140485;-64
2023/10/30 05:47:47;;;;;;;4.10;3.10;;;;;;;8.92;100.00;98485.04;429919;1274;140639;-64
2023/10/30 05:57:53;;;;;;;7.00;3.20;;;;;;;8.98;100.00;98503.41;430012;1274;140647;-64
2023/10/30 06:07:58;;;;;;;10.00;3.40;;;;;;;9.16;100.00;98520.46;429752;1270;139821;-64
2023/10/30 06:18:06;;;;;;;4.30;3.30;;;;;;;9.48;100.00;98532.55;429632;1271;139454;-63
2023/10/30 06:28:12;;;;;;;4.80;2.80;;;;;;;9.91;100.00;98533.27;429511;1275;139327;-63
2023/10/30 06:38:18;;;;;;;4.30;3.40;;;;;;;10.60;100.00;98530.45;429629;1274;140984;-64
2023/10/30 06:48:24;;;;;;;2.80;2.60;;;;;;;12.14;100.00;98544.77;429974;1270;140554;-64
2023/10/30 06:58:30;;;;;;;3.70;2.00;;;;;;;14.25;100.00;98545.41;429767;1276;139472;-63
2023/10/30 07:08:36;;;;;;;5.90;2.70;;;;;;;16.18;100.00;98562.64;430732;1270;139839;-63
2023/10/30 07:18:42;;;;;;;3.00;1.90;;;;;;;19.05;100.00;98558.19;430154;1271;139014;-63
2023/10/30 07:28:48;;;;;;;2.50;2.10;;;;;;;22.77;100.00;98557.97;431182;1270;139952;-64
2023/10/30 07:38:54;;;;;;;9.10;1.90;;;;;;;26.43;97.62;98566.62;430058;1274;139706;-67
2023/10/30 07:48:59;;;;;;;;;;;;;;;26.88;85.03;98584.73;429960;1274;138657;-75
2023/10/30 07:59:07;;;;;;;3.90;2.60;;;;;;;26.60;82.24;98590.80;430622;1270;126346;-67
2023/10/30 08:09:13;;;;;;;2.90;1.90;;;;;;;26.98;79.23;98593.65;429753;1274;138570;-62
2023/10/30 08:19:18;;;;;;;5.80;2.10;;;;;;;27.37;77.06;98577.25;430079;1275;138565;-64
2023/10/30 08:29:26;;;;;;;3.00;2.10;;;;;;;28.67;74.15;98578.13;430227;1270;138691;-66
2023/10/30 08:39:32;;;;;;;6.20;1.90;;;;;;;29.06;68.62;98614.17;430099;1270;138610;-73
2023/10/30 08:49:38;;;;;;;5.10;2.40;;;;;;;27.34;65.20;98644.90;431724;1275;138673;-66
2023/10/30 08:59:44;;;;;;;2.10;1.90;;;;;;;25.47;65.05;98654.88;431597;1274;138473;-61
2023/10/30 09:09:50;;;;;;;4.80;2.30;;;;;;;23.79;65.84;98643.58;430556;1271;139405;-62
2023/10/30 09:19:56;;;;;;;6.20;1.90;;;;;;;22.37;66.89;98661.89;429807;1270;139747;-61
2023/10/30 09:30:03;;;;;;;3.80;2.10;;;;;;;20.54;69.25;98682.58;429933;1275;138838;-62
2023/10/30 09:40:12;;;;;;;5.20;1.90;;;;;;;19.58;71.69;98695.03;430015;1271;139466;-61
2023/10/30 09:50:18;;;;;;;5.40;1.80;;;;;;;19.14;73.25;98695.65;430890;1271;139344;-62
2023/10/30 10:00:25;;;;;;;3.60;2.50;;;;;;;18.98;74.22;98690.33;430040;1274;138720;-61
2023/10/30 10:10:51;;;;;;;1.60;1.10;;;;;;;18.65;74.38;98669.09;430524;1270;139920;-62
2023/10/30 10:21:00;;;;;;;4.10;1.70;;;;;;;18.46;75.01;98649.86;429805;1270;139045;-63
2023/10/30 10:31:06;;;;;;;3.70;2.10;;;;;;;18.24;75.23;98639.35;430652;1274;139140;-63
2023/10/30 10:41:12;;;;;;;4.30;1.70;;;;;;;17.89;75.92;98629.70;429503;1273;139504;-63
2023/10/30 10:51:33;;;;;;;4.70;1.70;;;;;;;17.37;76.57;98637.45;430423;1272;139192;-64
2023/10/30 11:01:42;;;;;;;3.00;1.80;;;;;;;17.00;77.84;98641.54;429809;1270;140239;-62
2023/10/30 11:11:56;;;;;;;3.40;1.60;;;;;;;16.74;78.58;98640.55;430037;1273;139255;-62
2023/10/30 11:22:02;;;;;;;2.00;1.40;;;;;;;16.56;79.47;98625.25;432261;1270;139057;-62
2023/10/30 11:32:10;;;;;;;2.70;1.50;;;;;;;16.49;80.24;98617.98;429814;1273;139018;-63
2023/10/30 11:42:34;;;;;;;2.10;1.90;;;;;;;16.45;80.53;98614.55;430454;1270;139099;-62
2023/10/30 11:52:41;;;;;;;3.30;1.70;;;;;;;16.40;81.10;98597.08;430507;1274;139931;-62
2023/10/30 12:02:47;;;;;;;5.50;2.10;;;;;;;16.34;81.36;98580.17;429708;1271;138989;-62
2023/10/30 12:12:54;;;;;;;3.50;1.90;;;;;;;16.29;81.82;98565.04;429753;1270;138430;-62
2023/10/30 12:23:01;;;;;;;1.80;1.40;;;;;;;16.26;81.77;98567.07;430099;1271;139068;-62
2023/10/30 12:33:13;;;;;;;5.40;2.00;;;;;;;16.31;81.57;98584.07;429773;1274;138702;-62
2023/10/30 12:43:19;;;;;;;5.70;2.50;;;;;;;16.38;81.78;98566.64;430215;1270;139458;-62
2023/10/30 12:53:25;;;;;;;3.30;1.80;;;;;;;16.45;81.74;98554.71;429711;1270;138908;-62
2023/10/30 13:03:32;;;;;;;2.00;1.20;;;;;;;16.50;81.44;98552.08;431642;1274;138629;-62
2023/10/30 13:13:38;;;;;;;1.60;1.50;;;;;;;16.53;81.52;98557.38;431169;1270;140062;-63
2023/10/30 13:23:44;;;;;;;9.80;3.00;;;;;;;16.52;81.54;98569.30;429972;1271;138620;-63
2023/10/30 13:33:50;;;;;;;3.40;2.50;;;;;;;16.51;81.85;98576.52;429944;1270;139065;-63
2023/10/30 13:43:56;;;;;;;7.20;2.20;;;;;;;16.50;82.22;98576.02;430058;1270;138665;-63
2023/10/30 13:54:02;;;;;;;1.50;1.20;;;;;;;16.45;82.46;98573.98;430193;1270;138700;-63
2023/10/30 14:04:08;;;;;;;3.60;1.60;;;;;;;16.38;82.73;98566.55;430180;1270;139418;-63
2023/10/30 14:14:15;;;;;;;4.90;3.50;;;;;;;16.25;82.90;98559.55;430270;1274;139411;-62
2023/10/30 14:24:20;;;;;;;3.90;2.30;;;;;;;16.05;83.40;98535.64;430503;1269;139788;-62
2023/10/30 14:34:26;;;;;;;5.80;3.20;;;;;;;15.80;84.22;98540.17;430131;1270;140400;-62
2023/10/30 14:44:32;;;;;;;6.00;3.90;;;;;;;15.56;84.94;98545.37;429824;1275;141849;-61
2023/10/30 14:54:38;;;;;;;5.30;3.70;;;;;;;15.30;85.74;98536.88;430328;1274;139186;-62
2023/10/30 15:04:44;;;;;;;5.00;4.50;;;;;;;15.02;86.71;98544.98;430452;1271;140131;-63
2023/10/30 15:14:50;;;;;;;7.00;4.40;;;;;;;14.72;87.72;98536.02;430470;1271;139704;-61
2023/10/30 15:24:56;;;;;;;21.50;14.00;;;;;;;14.43;88.96;98537.59;431377;1275;139173;-69
2023/10/30 15:35:02;;;;;;;157.40;113.40;;;;;;;14.15;90.15;98551.48;430558;1274;140191;-67
2023/10/30 15:45:10;;;;;;;15.90;7.40;;;;;;;13.91;91.25;98543.23;430285;1270;140074;-64
2023/10/30 15:55:16;;;;;;;9.00;5.90;;;;;;;13.72;92.56;98539.02;431023;1271;140310;-67
2023/10/30 16:05:27;;;;;;;10.70;8.40;;;;;;;13.56;93.46;98545.39;430832;1271;140562;-65
2023/10/30 16:15:52;;;;;;;15.20;7.50;;;;;;;13.44;94.49;98546.88;430064;1271;139508;-63
2023/10/30 16:25:58;;;;;;;13.90;8.20;;;;;;;13.36;95.41;98544.63;430087;1271;139634;-63
2023/10/30 16:36:04;;;;;;;10.40;7.50;;;;;;;13.30;96.27;98537.34;430246;1271;140049;-64
2023/10/30 16:46:10;;;;;;;14.70;9.40;;;;;;;13.25;97.01;98552.94;429884;1271;139627;-62
2023/10/30 16:56:16;;;;;;;16.10;11.60;;;;;;;13.15;97.60;98561.09;429958;1272;140549;-62
2023/10/30 17:06:22;;;;;;;13.80;9.70;;;;;;;13.04;98.31;98548.38;430211;1270;139856;-62
2023/10/30 17:16:28;;;;;;;19.20;13.70;;;;;;;12.97;99.03;98545.85;429906;1275;139753;-62
2023/10/30 17:26:34;;;;;;;16.60;13.10;;;;;;;12.87;99.63;98539.33;430512;1274;140118;-62
2023/10/30 17:36:40;;;;;;;20.60;13.90;;;;;;;12.79;100.00;98540.43;431042;1270;141156;-64
2023/10/30 17:46:46;;;;;;;19.30;12.60;;;;;;;12.69;100.00;98539.36;430550;1270;140111;-63
2023/10/30 17:56:52;;;;;;;21.20;16.90;;;;;;;12.59;100.00;98533.41;431106;1270;140167;-64
2023/10/30 18:06:58;;;;;;;18.60;14.80;;;;;;;12.52;100.00;98523.63;430858;1270;140911;-64
2023/10/30 18:17:04;;;;;;;21.50;16.20;;;;;;;12.45;100.00;98524.27;429870;1275;140151;-65
2023/10/30 18:27:10;;;;;;;19.20;14.70;;;;;;;12.39;100.00;98512.88;430171;1274;140262;-62
2023/10/30 18:37:16;;;;;;;26.30;14.70;;;;;;;12.35;100.00;98509.91;430426;1271;139827;-62
2023/10/30 18:47:23;;;;;;;26.20;15.60;;;;;;;12.29;100.00;98512.34;430784;1271;140823;-61
2023/10/30 18:57:30;;;;;;;24.10;15.00;;;;;;;12.20;100.00;98508.20;430582;1270;139939;-62
2023/10/30 19:07:36;;;;;;;20.90;14.10;;;;;;;12.11;100.00;98498.46;430079;1274;140891;-62
2023/10/30 19:17:41;;;;;;;19.80;13.90;;;;;;;12.05;100.00;98486.20;430140;1271;139884;-64
2023/10/30 19:27:47;;;;;;;17.60;14.40;;;;;;;12.00;100.00;98480.83;430247;1270;141138;-62
2023/10/30 19:37:53;;;;;;;17.60;14.10;;;;;;;11.98;100.00;98458.19;429907;1271;139967;-62
2023/10/30 19:47:59;;;;;;;15.40;13.40;;;;;;;12.00;100.00;98446.75;429535;1276;141045;-61
2023/10/30 19:58:05;;;;;;;15.50;13.80;;;;;;;12.00;100.00;98445.34;429973;1273;140821;-62
2023/10/30 20:08:11;;;;;;;19.10;13.80;;;;;;;11.98;100.00;98434.30;429965;1274;139956;-61
2023/10/30 20:18:17;;;;;;;18.30;13.80;;;;;;;11.96;100.00;98423.85;430007;1272;140279;-63
2023/10/30 20:28:23;;;;;;;20.20;14.20;;;;;;;11.91;100.00;98403.15;430092;1274;141034;-61
2023/10/30 20:38:29;;;;;;;21.50;14.40;;;;;;;11.91;100.00;98384.91;430166;1276;140854;-62
2023/10/30 20:48:35;;;;;;;16.90;14.40;;;;;;;11.99;100.00;98369.69;430271;1276;139674;-63
2023/10/30 20:58:40;;;;;;;17.30;11.40;;;;;;;12.05;100.00;98365.31;430631;1271;139776;-61
2023/10/30 21:08:46;;;;;;;15.10;13.10;;;;;;;12.04;100.00;98355.79;430906;1270;141067;-62
2023/10/30 21:18:52;;;;;;;15.90;12.80;;;;;;;12.04;100.00;98337.67;430478;1271;140099;-62
2023/10/30 21:28:58;;;;;;;15.50;12.90;;;;;;;11.99;100.00;98318.66;430190;1270;139841;-62
2023/10/30 21:39:05;;;;;;;15.90;12.20;;;;;;;11.89;100.00;98292.85;430463;1276;141779;-62
2023/10/30 21:49:13;;;;;;;21.00;11.90;;;;;;;11.84;100.00;98271.98;430066;1276;139739;-62
2023/10/30 21:59:19;;;;;;;12.00;10.80;;;;;;;11.79;100.00;98264.20;430097;1275;139756;-62
2023/10/30 22:09:25;;;;;;;11.40;10.10;;;;;;;11.76;100.00;98257.70;430141;1275;140330;-62
2023/10/30 22:19:31;;;;;;;13.70;9.30;;;;;;;11.72;100.00;98254.46;429968;1274;140313;-61
2023/10/30 22:29:37;;;;;;;14.60;10.20;;;;;;;11.62;100.00;98245.38;429979;1271;139940;-62
2023/10/30 22:39:43;;;;;;;13.50;9.70;;;;;;;11.49;100.00;98229.85;429843;1270;141358;-61
2023/10/30 22:49:49;;;;;;;14.90;10.60;;;;;;;11.36;100.00;98212.92;429969;1275;139835;-61
2023/10/30 22:59:54;;;;;;;15.20;11.30;;;;;;;11.22;100.00;98208.39;429953;1275;140876;-62
2023/10/30 23:10:00;;;;;;;12.80;10.70;;;;;;;11.08;100.00;98184.59;429878;1276;141641;-63
2023/10/30 23:20:10;;;;;;;16.30;12.10;;;;;;;10.95;100.00;98169.42;430482;1276;139836;-60
2023/10/30 23:30:16;;;;;;;15.60;9.50;;;;;;;10.85;100.00;98139.85;431356;1275;140065;-62
2023/10/30 23:40:21;;;;;;;15.30;10.50;;;;;;;10.78;100.00;98112.45;430633;1270;140364;-61
2023/10/30 23:50:27;;;;;;;13.00;9.70;;;;;;;10.72;100.00;98097.24;430184;1276;139888;-61
